TPC346 CYTZ-CYHU
Flight info
| Callsign | TPC346 |
|---|---|
| Flight time | N/A |
| Altitude | 7000 |
| Route | BOMET7 MIGLO T725 EPMOK DCT TALNO DCT NAPEE |
| Aircraft | C208/L-SDFGR/C |
Departure
| Time | 2026-05-06 16:58 |
|---|---|
| Airport | Billy Bishop Toronto City Airport (CYTZ) |
Arrival
| Time | N/A |
|---|---|
| Airport | Montréal / Saint-Hubert Metropolitan Airport (CYHU) |
| Time | Latitude | Longitude | Altitude | Speed | Heading |
|---|---|---|---|---|---|
| 2026-05-06 16:58 | 43.64714 | -79.28840 | 5732 ft | 150 kts | 81° |
| 2026-05-06 16:58 | 43.64890 | -79.27413 | 5993 ft | 151 kts | 81° |
| 2026-05-06 16:58 | 43.65068 | -79.25976 | 6254 ft | 152 kts | 81° |
| 2026-05-06 16:58 | 43.65249 | -79.24539 | 6499 ft | 152 kts | 81° |
| 2026-05-06 16:59 | 43.65435 | -79.23106 | 6740 ft | 151 kts | 81° |
| 2026-05-06 16:59 | 43.65628 | -79.21676 | 6983 ft | 151 kts | 81° |
| 2026-05-06 16:59 | 43.65827 | -79.20248 | 7227 ft | 151 kts | 81° |
| 2026-05-06 16:59 | 43.66033 | -79.18823 | 7473 ft | 151 kts | 81° |
| 2026-05-06 17:00 | 43.66402 | -79.17463 | 7714 ft | 152 kts | 62° |
| 2026-05-06 17:00 | 43.66878 | -79.16185 | 7961 ft | 152 kts | 64° |
| 2026-05-06 17:00 | 43.67344 | -79.14854 | 8220 ft | 152 kts | 65° |
| 2026-05-06 17:00 | 43.67791 | -79.13562 | 8456 ft | 149 kts | 65° |
| 2026-05-06 17:01 | 43.68239 | -79.12275 | 8713 ft | 144 kts | 65° |
| 2026-05-06 17:01 | 43.68660 | -79.11063 | 8949 ft | 139 kts | 65° |
| 2026-05-06 17:01 | 43.69082 | -79.09836 | 9100 ft | 143 kts | 66° |
| 2026-05-06 17:01 | 43.69512 | -79.08582 | 9262 ft | 146 kts | 66° |
| 2026-05-06 17:02 | 43.69950 | -79.07308 | 9415 ft | 148 kts | 66° |
| 2026-05-06 17:02 | 43.70392 | -79.06019 | 9588 ft | 149 kts | 66° |
| 2026-05-06 17:02 | 43.70840 | -79.04716 | 9750 ft | 151 kts | 66° |
| 2026-05-06 17:02 | 43.71294 | -79.03396 | 9899 ft | 152 kts | 66° |
| 2026-05-06 17:03 | 43.71753 | -79.02060 | 10004 ft | 158 kts | 66° |
| 2026-05-06 17:03 | 43.72239 | -79.00630 | 10020 ft | 171 kts | 66° |
| 2026-05-06 17:03 | 43.72761 | -78.99098 | 10018 ft | 180 kts | 66° |
| 2026-05-06 17:03 | 43.73302 | -78.97531 | 10016 ft | 180 kts | 65° |
| 2026-05-06 17:04 | 43.73842 | -78.95975 | 10017 ft | 179 kts | 66° |
| 2026-05-06 17:04 | 43.74369 | -78.94443 | 10017 ft | 178 kts | 66° |
| 2026-05-06 17:04 | 43.74897 | -78.92896 | 10017 ft | 178 kts | 66° |
| 2026-05-06 17:04 | 43.75427 | -78.91348 | 10016 ft | 178 kts | 66° |
| 2026-05-06 17:05 | 43.75954 | -78.89804 | 10015 ft | 177 kts | 66° |
| 2026-05-06 17:05 | 43.76481 | -78.88265 | 10013 ft | 177 kts | 66° |
| 2026-05-06 17:05 | 43.77006 | -78.86724 | 10012 ft | 177 kts | 66° |
| 2026-05-06 17:05 | 43.77531 | -78.85186 | 10013 ft | 177 kts | 66° |
| 2026-05-06 17:06 | 43.78058 | -78.83640 | 10013 ft | 178 kts | 66° |
| 2026-05-06 17:06 | 43.78584 | -78.82095 | 10014 ft | 178 kts | 66° |
| 2026-05-06 17:06 | 43.79113 | -78.80542 | 10015 ft | 178 kts | 66° |
| 2026-05-06 17:06 | 43.79642 | -78.78988 | 10014 ft | 178 kts | 66° |
| 2026-05-06 17:07 | 43.80169 | -78.77439 | 10014 ft | 178 kts | 66° |
| 2026-05-06 17:07 | 43.80696 | -78.75889 | 10013 ft | 177 kts | 66° |
| 2026-05-06 17:07 | 43.81221 | -78.74346 | 10009 ft | 177 kts | 66° |
| 2026-05-06 17:07 | 43.81745 | -78.72803 | 10008 ft | 177 kts | 66° |
| 2026-05-06 17:08 | 43.82268 | -78.71260 | 10007 ft | 177 kts | 66° |
| 2026-05-06 17:08 | 43.82791 | -78.69720 | 10004 ft | 177 kts | 66° |
| 2026-05-06 17:08 | 43.83306 | -78.68199 | 10001 ft | 177 kts | 66° |
| 2026-05-06 17:08 | 43.83828 | -78.66659 | 9995 ft | 177 kts | 66° |
| 2026-05-06 17:09 | 43.84350 | -78.65116 | 9993 ft | 177 kts | 66° |
| 2026-05-06 17:09 | 43.84875 | -78.63568 | 9993 ft | 177 kts | 66° |
| 2026-05-06 17:09 | 43.85398 | -78.62020 | 10010 ft | 178 kts | 66° |
| 2026-05-06 17:09 | 43.85922 | -78.60472 | 10011 ft | 177 kts | 66° |
| 2026-05-06 17:10 | 43.86444 | -78.58924 | 10011 ft | 177 kts | 66° |
| 2026-05-06 17:10 | 43.86966 | -78.57382 | 10011 ft | 177 kts | 66° |
| 2026-05-06 17:10 | 43.87486 | -78.55837 | 10010 ft | 177 kts | 66° |
| 2026-05-06 17:10 | 43.88007 | -78.54295 | 10010 ft | 176 kts | 66° |
| 2026-05-06 17:11 | 43.88526 | -78.52753 | 10007 ft | 177 kts | 66° |
| 2026-05-06 17:11 | 43.89046 | -78.51211 | 10006 ft | 177 kts | 66° |
| 2026-05-06 17:11 | 43.89566 | -78.49667 | 10006 ft | 177 kts | 66° |
| 2026-05-06 17:11 | 43.90086 | -78.48120 | 10006 ft | 177 kts | 67° |
| 2026-05-06 17:12 | 43.90607 | -78.46572 | 10005 ft | 177 kts | 66° |
| 2026-05-06 17:12 | 43.91127 | -78.45025 | 10006 ft | 177 kts | 66° |
| 2026-05-06 17:12 | 43.91646 | -78.43478 | 10006 ft | 177 kts | 66° |
| 2026-05-06 17:12 | 43.92168 | -78.41926 | 10005 ft | 177 kts | 66° |
| 2026-05-06 17:13 | 43.92681 | -78.40398 | 10004 ft | 177 kts | 66° |
| 2026-05-06 17:13 | 43.93204 | -78.38839 | 10002 ft | 180 kts | 66° |
| 2026-05-06 17:13 | 43.93733 | -78.37255 | 10005 ft | 182 kts | 66° |
| 2026-05-06 17:13 | 43.94265 | -78.35665 | 9999 ft | 182 kts | 66° |
| 2026-05-06 17:14 | 43.94797 | -78.34082 | 10000 ft | 180 kts | 66° |
| 2026-05-06 17:14 | 43.95323 | -78.32509 | 9997 ft | 179 kts | 66° |
| 2026-05-06 17:14 | 43.95847 | -78.30943 | 9995 ft | 179 kts | 66° |
| 2026-05-06 17:14 | 43.96369 | -78.29379 | 9994 ft | 178 kts | 66° |
| 2026-05-06 17:15 | 43.96891 | -78.27815 | 9992 ft | 179 kts | 66° |
| 2026-05-06 17:15 | 43.97413 | -78.26250 | 9991 ft | 178 kts | 66° |
| 2026-05-06 17:15 | 43.97934 | -78.24691 | 9992 ft | 178 kts | 66° |
| 2026-05-06 17:15 | 43.98453 | -78.23129 | 9990 ft | 178 kts | 66° |
| 2026-05-06 17:16 | 43.98974 | -78.21572 | 9988 ft | 177 kts | 66° |
| 2026-05-06 17:16 | 43.99491 | -78.20021 | 9987 ft | 177 kts | 67° |
| 2026-05-06 17:16 | 44.00007 | -78.18470 | 9987 ft | 177 kts | 66° |
| 2026-05-06 17:16 | 44.00521 | -78.16919 | 9995 ft | 175 kts | 67° |
| 2026-05-06 17:17 | 44.01031 | -78.15388 | 9998 ft | 175 kts | 67° |
| 2026-05-06 17:17 | 44.01535 | -78.13873 | 9998 ft | 175 kts | 66° |
| 2026-05-06 17:17 | 44.02052 | -78.12313 | 9999 ft | 176 kts | 67° |
| 2026-05-06 17:17 | 44.02558 | -78.10791 | 9998 ft | 175 kts | 66° |
| 2026-05-06 17:18 | 44.03068 | -78.09253 | 9999 ft | 174 kts | 67° |
| 2026-05-06 17:18 | 44.03573 | -78.07729 | 9999 ft | 174 kts | 67° |
| 2026-05-06 17:18 | 44.04078 | -78.06205 | 9996 ft | 174 kts | 67° |
| 2026-05-06 17:18 | 44.04583 | -78.04681 | 9996 ft | 173 kts | 66° |
| 2026-05-06 17:19 | 44.05084 | -78.03163 | 9992 ft | 173 kts | 66° |
| 2026-05-06 17:19 | 44.05588 | -78.01644 | 9991 ft | 173 kts | 67° |
| 2026-05-06 17:19 | 44.06088 | -78.00126 | 9986 ft | 172 kts | 67° |
| 2026-05-06 17:19 | 44.06588 | -77.98614 | 9988 ft | 173 kts | 67° |
| 2026-05-06 17:20 | 44.07089 | -77.97098 | 9989 ft | 173 kts | 67° |
| 2026-05-06 17:20 | 44.07589 | -77.95582 | 9970 ft | 173 kts | 66° |
| 2026-05-06 17:20 | 44.08090 | -77.94063 | 9978 ft | 173 kts | 66° |
| 2026-05-06 17:20 | 44.08593 | -77.92540 | 9980 ft | 173 kts | 67° |
| 2026-05-06 17:21 | 44.09097 | -77.91010 | 9980 ft | 174 kts | 67° |
| 2026-05-06 17:21 | 44.09601 | -77.89475 | 9982 ft | 175 kts | 67° |
| 2026-05-06 17:21 | 44.10108 | -77.87931 | 9982 ft | 175 kts | 67° |
| 2026-05-06 17:21 | 44.10616 | -77.86391 | 9982 ft | 175 kts | 67° |
| 2026-05-06 17:22 | 44.11120 | -77.84855 | 9985 ft | 174 kts | 67° |
| 2026-05-06 17:22 | 44.11625 | -77.83319 | 9987 ft | 175 kts | 67° |
| 2026-05-06 17:22 | 44.12133 | -77.81768 | 9982 ft | 177 kts | 67° |
| 2026-05-06 17:22 | 44.12643 | -77.80213 | 9992 ft | 176 kts | 67° |
| 2026-05-06 17:23 | 44.13144 | -77.78687 | 9993 ft | 175 kts | 67° |
| 2026-05-06 17:23 | 44.13651 | -77.77143 | 9992 ft | 175 kts | 67° |
| 2026-05-06 17:23 | 44.14155 | -77.75602 | 9992 ft | 175 kts | 67° |
| 2026-05-06 17:23 | 44.14661 | -77.74058 | 9991 ft | 175 kts | 67° |
| 2026-05-06 17:24 | 44.15166 | -77.72513 | 9992 ft | 175 kts | 67° |
| 2026-05-06 17:24 | 44.15671 | -77.70966 | 9995 ft | 175 kts | 67° |
| 2026-05-06 17:24 | 44.16177 | -77.69415 | 9995 ft | 176 kts | 67° |
| 2026-05-06 17:24 | 44.16683 | -77.67867 | 9996 ft | 176 kts | 67° |
| 2026-05-06 17:25 | 44.17190 | -77.66317 | 9999 ft | 176 kts | 67° |
| 2026-05-06 17:25 | 44.17700 | -77.64751 | 10003 ft | 179 kts | 67° |
| 2026-05-06 17:25 | 44.18216 | -77.63162 | 10011 ft | 182 kts | 67° |
| 2026-05-06 17:25 | 44.18732 | -77.61526 | 9881 ft | 188 kts | 71° |
| 2026-05-06 17:26 | 44.19243 | -77.59911 | 10001 ft | 180 kts | 63° |
| 2026-05-06 17:26 | 44.19808 | -77.58357 | 9993 ft | 179 kts | 67° |
| 2026-05-06 17:26 | 44.20304 | -77.56770 | 9993 ft | 178 kts | 70° |
| 2026-05-06 17:26 | 44.20812 | -77.55209 | 9993 ft | 177 kts | 66° |
| 2026-05-06 17:27 | 44.21315 | -77.53645 | 9992 ft | 177 kts | 67° |
| 2026-05-06 17:27 | 44.21817 | -77.52077 | 9993 ft | 177 kts | 66° |
| 2026-05-06 17:27 | 44.22327 | -77.50513 | 9990 ft | 178 kts | 66° |
| 2026-05-06 17:27 | 44.22838 | -77.48945 | 9992 ft | 177 kts | 66° |
| 2026-05-06 17:28 | 44.23348 | -77.47378 | 9989 ft | 178 kts | 66° |
| 2026-05-06 17:28 | 44.23854 | -77.45809 | 9989 ft | 177 kts | 66° |
| 2026-05-06 17:28 | 44.24353 | -77.44268 | 9986 ft | 177 kts | 66° |
| 2026-05-06 17:28 | 44.24858 | -77.42708 | 9986 ft | 176 kts | 66° |
| 2026-05-06 17:29 | 44.25360 | -77.41156 | 9985 ft | 176 kts | 66° |
| 2026-05-06 17:29 | 44.25862 | -77.39602 | 9984 ft | 175 kts | 66° |
| 2026-05-06 17:29 | 44.26361 | -77.38058 | 9986 ft | 174 kts | 66° |
| 2026-05-06 17:29 | 44.26857 | -77.36522 | 9986 ft | 173 kts | 66° |
| 2026-05-06 17:30 | 44.27349 | -77.34998 | 9983 ft | 172 kts | 67° |
| 2026-05-06 17:30 | 44.27837 | -77.33484 | 9983 ft | 171 kts | 66° |
| 2026-05-06 17:30 | 44.28326 | -77.31964 | 9983 ft | 171 kts | 67° |
| 2026-05-06 17:30 | 44.28814 | -77.30444 | 9994 ft | 172 kts | 67° |
| 2026-05-06 17:31 | 44.29301 | -77.28926 | 9996 ft | 171 kts | 67° |
| 2026-05-06 17:31 | 44.29790 | -77.27416 | 9986 ft | 171 kts | 67° |
| 2026-05-06 17:31 | 44.30270 | -77.25921 | 9985 ft | 171 kts | 67° |
| 2026-05-06 17:31 | 44.30758 | -77.24401 | 9986 ft | 172 kts | 67° |
| 2026-05-06 17:32 | 44.31248 | -77.22870 | 9987 ft | 173 kts | 67° |
| 2026-05-06 17:32 | 44.31739 | -77.21340 | 9986 ft | 172 kts | 67° |
| 2026-05-06 17:32 | 44.32227 | -77.19821 | 9971 ft | 171 kts | 67° |
| 2026-05-06 17:32 | 44.32712 | -77.18308 | 9971 ft | 170 kts | 67° |
| 2026-05-06 17:33 | 44.33195 | -77.16800 | 9974 ft | 170 kts | 67° |
| 2026-05-06 17:33 | 44.33675 | -77.15300 | 9972 ft | 168 kts | 67° |
| 2026-05-06 17:33 | 44.34152 | -77.13813 | 9974 ft | 167 kts | 67° |
| 2026-05-06 17:33 | 44.34627 | -77.12327 | 9973 ft | 168 kts | 67° |
| 2026-05-06 17:34 | 44.35101 | -77.10840 | 9972 ft | 168 kts | 67° |
| 2026-05-06 17:34 | 44.35575 | -77.09354 | 9971 ft | 168 kts | 67° |
| 2026-05-06 17:34 | 44.36050 | -77.07869 | 9972 ft | 167 kts | 67° |
| 2026-05-06 17:34 | 44.36518 | -77.06399 | 9971 ft | 167 kts | 67° |
| 2026-05-06 17:35 | 44.36992 | -77.04918 | 9973 ft | 167 kts | 67° |
| 2026-05-06 17:35 | 44.37464 | -77.03432 | 9973 ft | 168 kts | 67° |
| 2026-05-06 17:35 | 44.37939 | -77.01941 | 9979 ft | 168 kts | 67° |
| 2026-05-06 17:36 | 44.38886 | -76.98962 | 9988 ft | 168 kts | 67° |
| 2026-05-06 17:36 | 44.39360 | -76.97471 | 9985 ft | 168 kts | 67° |
| 2026-05-06 17:36 | 44.39835 | -76.95978 | 9984 ft | 168 kts | 67° |
| 2026-05-06 17:36 | 44.40308 | -76.94485 | 9982 ft | 167 kts | 67° |
| 2026-05-06 17:37 | 44.40782 | -76.92995 | 9979 ft | 168 kts | 67° |
| 2026-05-06 17:37 | 44.41254 | -76.91508 | 9977 ft | 167 kts | 67° |
| 2026-05-06 17:37 | 44.41724 | -76.90024 | 9978 ft | 167 kts | 67° |
| 2026-05-06 17:37 | 44.42196 | -76.88535 | 9978 ft | 167 kts | 67° |
| 2026-05-06 17:38 | 44.42667 | -76.87045 | 9979 ft | 167 kts | 67° |
| 2026-05-06 17:38 | 44.43137 | -76.85562 | 9988 ft | 167 kts | 68° |
| 2026-05-06 17:38 | 44.43606 | -76.84078 | 9991 ft | 167 kts | 68° |
| 2026-05-06 17:38 | 44.44075 | -76.82592 | 9991 ft | 167 kts | 68° |
| 2026-05-06 17:39 | 44.44546 | -76.81106 | 9991 ft | 167 kts | 68° |
| 2026-05-06 17:39 | 44.45013 | -76.79623 | 9992 ft | 166 kts | 68° |
| 2026-05-06 17:39 | 44.45322 | -76.78644 | 9992 ft | 166 kts | 68° |
| 2026-05-06 17:39 | 44.45946 | -76.76668 | 9991 ft | 166 kts | 68° |
| 2026-05-06 17:40 | 44.46254 | -76.75690 | 9981 ft | 165 kts | 68° |
| 2026-05-06 17:40 | 44.46717 | -76.74220 | 9981 ft | 165 kts | 67° |
| 2026-05-06 17:40 | 44.47181 | -76.72747 | 9981 ft | 165 kts | 68° |
| 2026-05-06 17:40 | 44.47796 | -76.70793 | 9984 ft | 166 kts | 68° |
| 2026-05-06 17:41 | 44.48262 | -76.69309 | 9986 ft | 167 kts | 68° |
| 2026-05-06 17:41 | 44.48730 | -76.67820 | 9990 ft | 168 kts | 68° |
| 2026-05-06 17:41 | 44.49050 | -76.66802 | 9999 ft | 170 kts | 68° |
| 2026-05-06 17:41 | 44.49527 | -76.65281 | 9999 ft | 172 kts | 68° |
| 2026-05-06 17:42 | 44.50010 | -76.63742 | 10003 ft | 173 kts | 68° |
| 2026-05-06 17:42 | 44.50487 | -76.62173 | 10004 ft | 176 kts | 68° |
| 2026-05-06 17:42 | 44.51006 | -76.60605 | 10002 ft | 179 kts | 67° |
| 2026-05-06 17:42 | 44.51502 | -76.59000 | 9998 ft | 180 kts | 69° |
| 2026-05-06 17:43 | 44.51994 | -76.57390 | 9999 ft | 180 kts | 67° |
| 2026-05-06 17:43 | 44.52497 | -76.55813 | 9994 ft | 179 kts | 67° |
| 2026-05-06 17:43 | 44.53004 | -76.54224 | 9997 ft | 180 kts | 66° |
| 2026-05-06 17:43 | 44.53513 | -76.52609 | 9991 ft | 181 kts | 68° |
| 2026-05-06 17:44 | 44.54003 | -76.50975 | 9989 ft | 182 kts | 70° |
| 2026-05-06 17:44 | 44.54495 | -76.49340 | 9982 ft | 182 kts | 68° |
| 2026-05-06 17:44 | 44.55011 | -76.47736 | 9979 ft | 179 kts | 67° |
| 2026-05-06 17:44 | 44.55512 | -76.46169 | 9982 ft | 174 kts | 68° |
| 2026-05-06 17:45 | 44.55990 | -76.44625 | 9979 ft | 171 kts | 68° |
| 2026-05-06 17:45 | 44.56458 | -76.43111 | 9983 ft | 168 kts | 68° |
| 2026-05-06 17:45 | 44.56924 | -76.41615 | 9981 ft | 166 kts | 68° |
| 2026-05-06 17:45 | 44.57385 | -76.40131 | 9987 ft | 167 kts | 69° |
| 2026-05-06 17:46 | 44.57848 | -76.38637 | 9984 ft | 168 kts | 68° |
| 2026-05-06 17:46 | 44.58315 | -76.37135 | 9982 ft | 168 kts | 68° |
| 2026-05-06 17:46 | 44.58781 | -76.35634 | 9979 ft | 167 kts | 68° |
| 2026-05-06 17:46 | 44.59244 | -76.34137 | 9980 ft | 167 kts | 69° |
| 2026-05-06 17:47 | 44.59710 | -76.32640 | 9979 ft | 167 kts | 68° |
| 2026-05-06 17:47 | 44.60174 | -76.31140 | 9977 ft | 167 kts | 68° |
| 2026-05-06 17:47 | 44.60636 | -76.29650 | 9981 ft | 166 kts | 68° |
| 2026-05-06 17:47 | 44.61097 | -76.28158 | 9981 ft | 166 kts | 68° |
| 2026-05-06 17:48 | 44.61557 | -76.26675 | 9983 ft | 165 kts | 68° |
| 2026-05-06 17:48 | 44.62013 | -76.25198 | 9979 ft | 165 kts | 68° |
| 2026-05-06 17:48 | 44.62462 | -76.23749 | 9980 ft | 164 kts | 68° |
| 2026-05-06 17:48 | 44.62918 | -76.22272 | 9978 ft | 165 kts | 68° |
| 2026-05-06 17:49 | 44.63374 | -76.20792 | 9980 ft | 165 kts | 68° |
| 2026-05-06 17:49 | 44.63828 | -76.19321 | 9978 ft | 164 kts | 68° |
| 2026-05-06 17:49 | 44.64280 | -76.17854 | 9979 ft | 164 kts | 68° |
| 2026-05-06 17:49 | 44.64732 | -76.16386 | 9979 ft | 164 kts | 68° |
| 2026-05-06 17:50 | 44.65183 | -76.14923 | 9978 ft | 163 kts | 68° |
| 2026-05-06 17:50 | 44.65633 | -76.13458 | 9976 ft | 163 kts | 68° |
| 2026-05-06 17:50 | 44.66084 | -76.11993 | 9979 ft | 163 kts | 68° |
| 2026-05-06 17:50 | 44.66533 | -76.10533 | 9981 ft | 162 kts | 68° |
| 2026-05-06 17:51 | 44.66980 | -76.09081 | 9983 ft | 161 kts | 68° |
| 2026-05-06 17:51 | 44.67425 | -76.07633 | 9978 ft | 161 kts | 68° |
| 2026-05-06 17:51 | 44.67865 | -76.06196 | 9978 ft | 160 kts | 68° |
| 2026-05-06 17:51 | 44.68306 | -76.04761 | 9976 ft | 160 kts | 68° |
| 2026-05-06 17:52 | 44.68738 | -76.03348 | 9981 ft | 160 kts | 68° |
| 2026-05-06 17:52 | 44.69178 | -76.01914 | 9979 ft | 160 kts | 68° |
| 2026-05-06 17:52 | 44.69617 | -76.00480 | 9979 ft | 160 kts | 68° |
| 2026-05-06 17:52 | 44.70055 | -75.99048 | 9983 ft | 159 kts | 68° |
| 2026-05-06 17:53 | 44.70461 | -75.97602 | 9981 ft | 158 kts | 76° |
| 2026-05-06 17:53 | 44.70841 | -75.96154 | 9978 ft | 158 kts | 70° |
| 2026-05-06 17:53 | 44.71244 | -75.94721 | 9988 ft | 157 kts | 72° |
| 2026-05-06 17:53 | 44.71632 | -75.93286 | 9984 ft | 157 kts | 72° |
| 2026-05-06 17:54 | 44.72017 | -75.91854 | 9977 ft | 156 kts | 72° |
| 2026-05-06 17:54 | 44.72399 | -75.90426 | 9973 ft | 156 kts | 73° |
| 2026-05-06 17:54 | 44.72780 | -75.89003 | 9972 ft | 155 kts | 73° |
| 2026-05-06 17:54 | 44.73159 | -75.87585 | 9970 ft | 154 kts | 73° |
| 2026-05-06 17:55 | 44.73536 | -75.86178 | 9970 ft | 153 kts | 73° |
| 2026-05-06 17:55 | 44.73909 | -75.84778 | 9965 ft | 152 kts | 72° |
| 2026-05-06 17:55 | 44.74280 | -75.83389 | 9966 ft | 152 kts | 72° |
| 2026-05-06 17:55 | 44.74650 | -75.82001 | 9965 ft | 152 kts | 72° |
| 2026-05-06 17:56 | 44.75020 | -75.80613 | 9966 ft | 152 kts | 72° |
| 2026-05-06 17:56 | 44.75389 | -75.79225 | 9968 ft | 151 kts | 72° |
| 2026-05-06 17:56 | 44.75754 | -75.77856 | 9965 ft | 152 kts | 72° |
| 2026-05-06 17:56 | 44.76122 | -75.76470 | 9963 ft | 151 kts | 72° |
| 2026-05-06 17:57 | 44.76490 | -75.75087 | 9962 ft | 150 kts | 72° |
| 2026-05-06 17:57 | 44.76856 | -75.73710 | 9961 ft | 150 kts | 72° |
| 2026-05-06 17:57 | 44.77222 | -75.72333 | 9964 ft | 152 kts | 72° |
| 2026-05-06 17:57 | 44.77595 | -75.70919 | 9976 ft | 157 kts | 73° |
| 2026-05-06 17:58 | 44.77978 | -75.69459 | 9981 ft | 161 kts | 72° |
| 2026-05-06 17:58 | 44.78377 | -75.67966 | 9981 ft | 165 kts | 72° |
| 2026-05-06 17:58 | 44.78771 | -75.66441 | 9971 ft | 167 kts | 72° |
| 2026-05-06 17:58 | 44.79184 | -75.64921 | 9972 ft | 165 kts | 72° |
| 2026-05-06 17:59 | 44.79587 | -75.63410 | 9969 ft | 166 kts | 73° |
| 2026-05-06 17:59 | 44.79987 | -75.61882 | 9968 ft | 167 kts | 72° |
| 2026-05-06 17:59 | 44.80389 | -75.60363 | 9971 ft | 168 kts | 72° |
| 2026-05-06 17:59 | 44.80797 | -75.58811 | 9969 ft | 170 kts | 72° |
| 2026-05-06 18:00 | 44.81211 | -75.57258 | 9966 ft | 169 kts | 72° |
| 2026-05-06 18:00 | 44.81616 | -75.55717 | 9960 ft | 166 kts | 72° |
| 2026-05-06 18:00 | 44.82016 | -75.54205 | 9957 ft | 164 kts | 73° |
| 2026-05-06 18:00 | 44.82412 | -75.52702 | 9951 ft | 164 kts | 72° |
| 2026-05-06 18:01 | 44.82805 | -75.51208 | 9954 ft | 162 kts | 72° |
| 2026-05-06 18:01 | 44.83194 | -75.49726 | 9951 ft | 160 kts | 72° |
| 2026-05-06 18:01 | 44.83579 | -75.48263 | 9955 ft | 158 kts | 72° |
| 2026-05-06 18:01 | 44.83962 | -75.46817 | 9952 ft | 157 kts | 70° |
| 2026-05-06 18:02 | 44.84394 | -75.45413 | 9961 ft | 155 kts | 72° |
| 2026-05-06 18:02 | 44.84774 | -75.43984 | 9963 ft | 157 kts | 72° |
| 2026-05-06 18:02 | 44.85176 | -75.42536 | 9970 ft | 160 kts | 71° |
| 2026-05-06 18:02 | 44.85586 | -75.41083 | 9978 ft | 159 kts | 71° |
| 2026-05-06 18:03 | 44.85994 | -75.39642 | 9971 ft | 158 kts | 70° |
| 2026-05-06 18:03 | 44.86403 | -75.38196 | 9972 ft | 159 kts | 70° |
| 2026-05-06 18:03 | 44.86814 | -75.36753 | 9968 ft | 158 kts | 70° |
| 2026-05-06 18:03 | 44.87220 | -75.35317 | 9971 ft | 157 kts | 71° |
| 2026-05-06 18:04 | 44.87624 | -75.33884 | 9964 ft | 157 kts | 70° |
| 2026-05-06 18:04 | 44.88026 | -75.32465 | 9969 ft | 155 kts | 70° |
| 2026-05-06 18:04 | 44.88418 | -75.31076 | 9967 ft | 154 kts | 70° |
| 2026-05-06 18:04 | 44.88812 | -75.29682 | 9967 ft | 152 kts | 70° |
| 2026-05-06 18:05 | 44.89202 | -75.28299 | 9970 ft | 151 kts | 70° |
| 2026-05-06 18:05 | 44.89588 | -75.26925 | 9972 ft | 150 kts | 70° |
| 2026-05-06 18:05 | 44.89973 | -75.25562 | 9969 ft | 149 kts | 71° |
| 2026-05-06 18:05 | 44.90353 | -75.24214 | 9969 ft | 147 kts | 71° |
| 2026-05-06 18:06 | 44.90731 | -75.22870 | 9962 ft | 147 kts | 71° |
| 2026-05-06 18:06 | 44.91104 | -75.21540 | 9957 ft | 146 kts | 71° |
| 2026-05-06 18:06 | 44.91478 | -75.20211 | 9952 ft | 146 kts | 71° |
| 2026-05-06 18:06 | 44.91853 | -75.18880 | 9944 ft | 146 kts | 70° |
| 2026-05-06 18:07 | 44.92227 | -75.17547 | 9943 ft | 146 kts | 70° |
| 2026-05-06 18:07 | 44.92602 | -75.16210 | 9947 ft | 146 kts | 70° |
| 2026-05-06 18:07 | 44.92975 | -75.14877 | 9961 ft | 146 kts | 70° |
| 2026-05-06 18:07 | 44.93348 | -75.13547 | 9968 ft | 145 kts | 71° |
| 2026-05-06 18:08 | 44.93719 | -75.12223 | 9964 ft | 145 kts | 71° |
| 2026-05-06 18:08 | 44.94090 | -75.10897 | 9964 ft | 145 kts | 71° |
| 2026-05-06 18:08 | 44.94461 | -75.09573 | 9970 ft | 145 kts | 71° |
| 2026-05-06 18:08 | 44.94831 | -75.08248 | 9965 ft | 145 kts | 70° |
| 2026-05-06 18:09 | 44.95201 | -75.06921 | 9950 ft | 145 kts | 70° |
| 2026-05-06 18:09 | 44.95573 | -75.05593 | 9929 ft | 145 kts | 70° |
| 2026-05-06 18:09 | 44.95944 | -75.04269 | 9906 ft | 145 kts | 70° |
| 2026-05-06 18:09 | 44.96307 | -75.02962 | 9899 ft | 145 kts | 70° |
| 2026-05-06 18:10 | 44.96675 | -75.01645 | 9882 ft | 139 kts | 71° |
| 2026-05-06 18:10 | 44.97025 | -75.00392 | 9590 ft | 137 kts | 70° |
| 2026-05-06 18:10 | 44.97371 | -74.99159 | 9280 ft | 133 kts | 70° |
| 2026-05-06 18:10 | 44.97710 | -74.97953 | 8983 ft | 132 kts | 70° |
| 2026-05-06 18:11 | 44.98044 | -74.96760 | 8679 ft | 130 kts | 70° |
| 2026-05-06 18:11 | 44.98372 | -74.95587 | 8392 ft | 126 kts | 70° |
| 2026-05-06 18:11 | 44.98505 | -74.94385 | 8045 ft | 124 kts | 99° |
| 2026-05-06 18:11 | 44.98513 | -74.93210 | 7794 ft | 118 kts | 95° |
| 2026-05-06 18:12 | 44.98531 | -74.92045 | 7506 ft | 116 kts | 95° |
| 2026-05-06 18:12 | 44.98550 | -74.90915 | 7216 ft | 115 kts | 95° |
| 2026-05-06 18:12 | 44.98568 | -74.89796 | 6957 ft | 111 kts | 94° |
| 2026-05-06 18:12 | 44.98583 | -74.88699 | 6661 ft | 111 kts | 93° |
| 2026-05-06 18:13 | 44.98601 | -74.87631 | 6398 ft | 108 kts | 92° |
| 2026-05-06 18:13 | 44.98618 | -74.86576 | 6115 ft | 106 kts | 91° |
| 2026-05-06 18:13 | 44.98635 | -74.85542 | 5820 ft | 105 kts | 91° |
| 2026-05-06 18:13 | 44.98651 | -74.84524 | 5533 ft | 103 kts | 89° |
| 2026-05-06 18:14 | 44.98666 | -74.83522 | 5259 ft | 101 kts | 89° |
| 2026-05-06 18:14 | 44.98682 | -74.82550 | 4983 ft | 99 kts | 88° |
| 2026-05-06 18:14 | 44.98696 | -74.81583 | 4723 ft | 97 kts | 87° |
| 2026-05-06 18:14 | 44.98699 | -74.80654 | 4443 ft | 96 kts | 87° |
| 2026-05-06 18:15 | 44.98470 | -74.79705 | 3993 ft | 110 kts | 136° |
| 2026-05-06 18:15 | 44.97846 | -74.79385 | 3768 ft | 99 kts | 202° |
| 2026-05-06 18:15 | 44.97209 | -74.79848 | 3459 ft | 99 kts | 207° |
| 2026-05-06 18:15 | 44.96566 | -74.80418 | 2891 ft | 122 kts | 224° |
| 2026-05-06 18:16 | 44.95999 | -74.81382 | 2212 ft | 126 kts | 237° |
| 2026-05-06 18:16 | 44.95505 | -74.82492 | 1258 ft | 138 kts | 237° |
| 2026-05-06 18:16 | 44.94886 | -74.83416 | 637 ft | 122 kts | 210° |
| 2026-05-06 18:16 | 44.94184 | -74.83928 | 302 ft | 96 kts | 207° |
| 2026-05-06 18:17 | 44.93732 | -74.84313 | 229 ft | 58 kts | 211° |
| 2026-05-06 18:17 | 44.93624 | -74.84394 | 213 ft | 0 kts | 216° |